Bay Hills, New York
Current Conditions -  °F | °C
As of 11:53 AM on Friday 24 Oct 2014 (Local Time) from KFRG Reporting Station
Broken Clouds Broken Clouds  
Wind Chill: 14°   Ceiling: 2800
Heat Index: 14°   Visibility: 10mi
Dew Point:   Wind: 14mph
Humidity: 62%   Direction: 340°NNW
Pressure: 29.79"   Gusts: 22mph
Location:  40.8966°N, 73.4362°W
Report Text: KFRG 241553Z 34012G19KT 10SM BKN028 14/07 A2979 RMK AO2 SLP089 T01390067
Loading
Personal Weather Stations






























Interactive Weather Map
Tropical Storm Tracking
New forecast layout! Learn more

10-Day Weather Forecast

Advertisements
Track Severe Weather on mobile